createdAt,value
2023-04-06T00:02:12.044Z,99.90
2023-04-06T00:04:40.190Z,99.90
2023-04-06T00:07:09.659Z,99.90
2023-04-06T00:09:37.682Z,99.90
2023-04-06T00:12:05.913Z,99.90
2023-04-06T00:14:33.988Z,99.90
2023-04-06T00:17:02.578Z,99.90
2023-04-06T00:19:30.720Z,99.90
2023-04-06T00:21:58.804Z,99.90
2023-04-06T00:24:28.291Z,99.90
2023-04-06T00:26:56.279Z,99.90
2023-04-06T00:29:24.416Z,99.90
2023-04-06T00:31:52.505Z,99.90
2023-04-06T00:34:20.655Z,99.90
2023-04-06T00:36:48.757Z,99.90
2023-04-06T00:39:18.460Z,99.90
2023-04-06T00:41:52.817Z,99.90
2023-04-06T00:44:21.607Z,99.90
2023-04-06T00:46:49.767Z,99.90
2023-04-06T00:49:19.079Z,99.90
2023-04-06T00:51:47.363Z,99.90
2023-04-06T00:54:17.119Z,99.90
2023-04-06T00:56:46.080Z,99.90
2023-04-06T00:59:15.734Z,99.90
2023-04-06T01:01:43.941Z,99.90
2023-04-06T01:04:28.330Z,99.90
2023-04-06T01:06:57.273Z,99.90
2023-04-06T01:09:31.994Z,99.90
2023-04-06T01:12:04.289Z,99.90
2023-04-06T01:14:35.612Z,99.90
2023-04-06T01:17:03.799Z,99.90
2023-04-06T01:19:34.384Z,99.90
2023-04-06T01:22:02.902Z,99.90
2023-04-06T01:24:35.298Z,99.90
2023-04-06T01:27:28.830Z,99.90
2023-04-06T01:30:14.193Z,99.90
2023-04-06T01:32:47.998Z,99.90
2023-04-06T01:35:20.365Z,99.90
2023-04-06T01:37:59.044Z,99.90
2023-04-06T01:40:33.674Z,99.90
2023-04-06T01:43:02.086Z,99.90
2023-04-06T01:45:39.666Z,99.90
2023-04-06T01:48:17.287Z,99.90
2023-04-06T01:50:45.632Z,99.90
2023-04-06T01:53:18.060Z,99.90
2023-04-06T01:55:48.789Z,99.90
2023-04-06T01:58:39.621Z,99.90
2023-04-06T02:01:08.294Z,99.90
2023-04-06T02:03:51.202Z,99.90
2023-04-06T02:06:19.966Z,99.90
2023-04-06T02:08:48.223Z,99.90
2023-04-06T02:11:17.769Z,99.90
2023-04-06T02:13:50.097Z,99.90
2023-04-06T02:16:19.095Z,99.90
2023-04-06T02:18:48.136Z,99.90
2023-04-06T02:21:20.901Z,99.90
2023-04-06T02:23:50.333Z,99.90
2023-04-06T02:26:21.145Z,99.90
2023-04-06T02:28:49.886Z,99.90
2023-04-06T02:31:18.030Z,99.90
2023-04-06T02:33:46.780Z,99.90
2023-04-06T02:36:17.313Z,99.90
2023-04-06T02:38:45.394Z,99.90
2023-04-06T02:41:13.717Z,99.90
2023-04-06T02:43:43.227Z,99.90
2023-04-06T02:46:26.602Z,99.90
2023-04-06T02:48:55.032Z,99.90
2023-04-06T02:51:23.194Z,99.90
2023-04-06T02:53:56.395Z,99.90
2023-04-06T02:56:24.730Z,99.90
2023-04-06T02:58:55.060Z,99.90
2023-04-06T03:01:28.066Z,99.90
2023-04-06T03:04:00.571Z,99.90
2023-04-06T03:06:31.318Z,99.90
2023-04-06T03:09:06.360Z,99.90
2023-04-06T03:11:35.541Z,99.90
2023-04-06T03:14:05.450Z,99.90
2023-04-06T03:16:33.547Z,99.90
2023-04-06T03:19:03.339Z,99.90
2023-04-06T03:21:34.840Z,99.90
2023-04-06T03:24:06.021Z,99.90
2023-04-06T03:26:34.233Z,99.90
2023-04-06T03:29:08.368Z,99.90
2023-04-06T03:31:37.341Z,99.90
2023-04-06T03:34:09.362Z,99.90
2023-04-06T03:36:38.340Z,99.90
2023-04-06T03:39:07.146Z,99.90
2023-04-06T03:41:39.373Z,99.90
2023-04-06T03:44:30.559Z,99.90
2023-04-06T03:47:01.879Z,99.90
2023-04-06T03:49:30.017Z,99.90
2023-04-06T03:51:59.410Z,99.90
2023-04-06T03:54:27.607Z,99.90
2023-04-06T03:56:56.047Z,99.90
2023-04-06T03:59:24.221Z,99.90
2023-04-06T04:01:56.338Z,99.90
2023-04-06T04:04:25.207Z,99.90
2023-04-06T04:06:53.381Z,99.90
2023-04-06T04:09:21.536Z,99.90
2023-04-06T04:11:49.700Z,99.90
2023-04-06T04:14:17.758Z,99.90
2023-04-06T04:16:46.913Z,99.90
2023-04-06T04:19:16.407Z,99.90
2023-04-06T04:21:46.473Z,99.90
2023-04-06T04:24:18.288Z,99.90
2023-04-06T04:26:46.354Z,99.90
2023-04-06T04:29:14.527Z,99.90
2023-04-06T04:31:42.681Z,99.90
2023-04-06T04:34:21.964Z,99.90
2023-04-06T04:36:51.812Z,99.90
2023-04-06T04:39:27.592Z,99.90
2023-04-06T04:42:03.401Z,99.90
2023-04-06T04:44:33.851Z,99.90
2023-04-06T04:47:02.798Z,99.90
2023-04-06T04:49:43.068Z,99.90
2023-04-06T04:52:12.791Z,99.90
2023-04-06T04:54:53.012Z,99.90
2023-04-06T04:57:26.611Z,99.90
2023-04-06T04:59:56.581Z,99.90
2023-04-06T05:02:26.326Z,99.90
2023-04-06T05:05:14.671Z,99.90
2023-04-06T05:07:43.488Z,99.90
2023-04-06T05:10:19.125Z,99.90
2023-04-06T05:12:54.649Z,99.90
2023-04-06T05:15:23.168Z,99.90
2023-04-06T05:17:55.933Z,99.90
2023-04-06T05:20:32.735Z,99.90
2023-04-06T05:23:01.647Z,99.90
2023-04-06T05:25:30.460Z,99.90
2023-04-06T05:28:04.307Z,99.90
2023-04-06T05:30:36.512Z,99.90
2023-04-06T05:33:05.008Z,99.90
2023-04-06T05:35:47.673Z,99.90
2023-04-06T05:38:16.061Z,99.90
2023-04-06T05:40:44.259Z,99.90
2023-04-06T05:43:16.565Z,99.90
2023-04-06T05:45:48.552Z,99.90
2023-04-06T05:48:16.696Z,99.90
2023-04-06T05:50:44.784Z,99.90
2023-04-06T05:53:17.193Z,99.90
2023-04-06T05:55:53.359Z,99.90
2023-04-06T05:58:23.155Z,99.90
2023-04-06T06:00:59.457Z,99.90
2023-04-06T06:03:30.595Z,99.90
2023-04-06T06:06:05.021Z,99.90
2023-04-06T06:08:48.597Z,99.90
2023-04-06T06:11:18.918Z,99.90
2023-04-06T06:13:47.137Z,99.90
2023-04-06T06:16:16.220Z,99.90
2023-04-06T06:18:48.300Z,99.90
2023-04-06T06:21:18.226Z,99.90
2023-04-06T06:23:50.272Z,99.90
2023-04-06T06:26:21.779Z,99.90
2023-04-06T06:28:51.310Z,99.90
2023-04-06T06:31:21.495Z,99.90
2023-04-06T06:33:51.381Z,99.90
2023-04-06T06:36:21.424Z,99.90
2023-04-06T06:38:51.481Z,99.90
2023-04-06T06:41:21.758Z,99.90
2023-04-06T06:43:50.233Z,99.90
2023-04-06T06:46:19.768Z,99.90
2023-04-06T06:48:48.001Z,99.90
2023-04-06T06:51:16.393Z,99.90
2023-04-06T06:53:44.524Z,99.90
2023-04-06T06:56:14.651Z,99.90
2023-04-06T06:58:43.673Z,99.90
2023-04-06T07:01:11.822Z,99.90
2023-04-06T07:03:40.152Z,99.90
2023-04-06T07:06:08.526Z,99.90
2023-04-06T07:08:36.700Z,99.90
2023-04-06T07:11:05.030Z,99.90
2023-04-06T07:13:34.612Z,99.90
2023-04-06T07:16:03.850Z,99.90
2023-04-06T07:18:34.092Z,99.90
2023-04-06T07:21:03.763Z,99.90
2023-04-06T07:23:31.912Z,99.90
2023-04-06T07:26:00.068Z,99.90
2023-04-06T07:28:28.267Z,99.90
2023-04-06T07:30:58.518Z,99.90
2023-04-06T07:33:30.789Z,99.90
2023-04-06T07:36:00.345Z,99.90
2023-04-06T07:38:28.696Z,99.90
2023-04-06T07:40:57.954Z,99.90
2023-04-06T07:43:26.652Z,99.90
2023-04-06T07:45:55.643Z,99.90
2023-04-06T07:48:25.506Z,99.90
2023-04-06T07:50:54.093Z,99.90
2023-04-06T07:53:22.460Z,99.90
2023-04-06T07:55:50.709Z,99.90
2023-04-06T07:58:18.768Z,99.90
2023-04-06T08:00:46.868Z,99.90
2023-04-06T08:03:15.154Z,99.90
2023-04-06T08:05:44.706Z,99.90
2023-04-06T08:08:12.956Z,99.90
2023-04-06T08:10:41.078Z,99.90
2023-04-06T08:13:09.886Z,99.90
2023-04-06T08:15:38.015Z,99.90
2023-04-06T08:18:06.729Z,99.90
2023-04-06T08:20:34.843Z,99.90
2023-04-06T08:23:04.370Z,99.90
2023-04-06T08:25:32.689Z,99.90
2023-04-06T08:28:00.816Z,99.90
2023-04-06T08:30:29.040Z,99.90
2023-04-06T08:32:57.343Z,99.90
2023-04-06T08:35:25.633Z,99.90
2023-04-06T08:37:53.823Z,99.90
2023-04-06T08:40:23.468Z,99.80
2023-04-06T08:42:56.418Z,99.80
2023-04-06T08:45:25.044Z,99.10
2023-04-06T08:47:54.265Z,98.70
2023-04-06T08:50:23.228Z,98.10
2023-04-06T08:52:51.613Z,97.70
2023-04-06T08:55:19.921Z,97.10
2023-04-06T08:57:49.672Z,96.20
2023-04-06T09:00:18.642Z,95.40
2023-04-06T09:02:48.229Z,94.90
2023-04-06T09:05:17.270Z,93.80
2023-04-06T09:07:46.649Z,93.30
2023-04-06T09:10:16.384Z,90.90
2023-04-06T09:12:45.199Z,88.70
2023-04-06T09:15:24.408Z,86.00
2023-04-06T09:17:56.943Z,83.90
2023-04-06T09:20:26.889Z,82.50
2023-04-06T09:22:55.239Z,80.30
2023-04-06T09:25:24.845Z,80.80
2023-04-06T09:28:01.425Z,78.60
2023-04-06T09:30:31.629Z,76.30
2023-04-06T09:33:00.542Z,75.90
2023-04-06T09:35:30.931Z,74.30
2023-04-06T09:37:59.159Z,73.50
2023-04-06T09:40:27.305Z,72.80
2023-04-06T09:42:58.430Z,72.50
2023-04-06T09:45:27.787Z,71.30
2023-04-06T09:47:58.012Z,70.60
2023-04-06T09:50:27.857Z,68.70
2023-04-06T09:52:59.486Z,67.40
2023-04-06T09:55:32.671Z,66.60
2023-04-06T09:58:07.042Z,65.50
2023-04-06T10:00:43.533Z,63.60
2023-04-06T10:03:24.301Z,62.30
2023-04-06T10:05:59.438Z,61.80
2023-04-06T10:08:32.537Z,60.00
2023-04-06T10:11:01.840Z,59.00
2023-04-06T10:13:30.096Z,57.90
2023-04-06T10:15:59.508Z,57.20
2023-04-06T10:18:31.077Z,56.00
2023-04-06T10:21:05.493Z,55.80
2023-04-06T10:23:36.827Z,55.90
2023-04-06T10:26:05.453Z,54.20
2023-04-06T10:28:36.651Z,53.60
2023-04-06T10:31:07.718Z,53.50
2023-04-06T10:33:37.526Z,53.30
2023-04-06T10:36:12.694Z,51.90
2023-04-06T10:38:42.151Z,51.60
2023-04-06T10:41:11.948Z,51.40
2023-04-06T10:43:41.561Z,51.10
2023-04-06T10:46:12.678Z,51.10
2023-04-06T10:48:44.512Z,50.70
2023-04-06T10:51:14.415Z,50.40
2023-04-06T10:53:44.845Z,49.70
2023-04-06T10:56:14.358Z,49.20
2023-04-06T10:58:47.541Z,48.20
2023-04-06T11:01:17.183Z,48.60
2023-04-06T11:03:47.441Z,47.70
2023-04-06T11:06:26.342Z,47.40
2023-04-06T11:08:55.129Z,47.00
2023-04-06T11:11:26.780Z,46.90
2023-04-06T11:13:56.512Z,45.50
2023-04-06T11:16:26.006Z,45.50
2023-04-06T11:18:57.666Z,44.80
2023-04-06T11:21:37.633Z,44.80
2023-04-06T11:24:11.031Z,44.10
2023-04-06T11:26:41.292Z,44.10
2023-04-06T11:29:09.845Z,43.90
2023-04-06T11:31:42.542Z,43.20
2023-04-06T11:34:18.262Z,43.30
2023-04-06T11:36:47.742Z,43.50
2023-04-06T11:39:20.530Z,42.90
2023-04-06T11:41:50.226Z,42.80
2023-04-06T11:44:31.111Z,43.00
2023-04-06T11:46:59.681Z,42.50
2023-04-06T11:49:31.422Z,42.30
2023-04-06T11:52:00.314Z,41.40
2023-04-06T11:54:35.887Z,40.90
2023-04-06T11:57:05.003Z,40.70
2023-04-06T11:59:33.299Z,40.90
2023-04-06T12:02:01.544Z,40.30
2023-04-06T12:04:31.350Z,39.50
2023-04-06T12:07:00.032Z,39.40
2023-04-06T12:09:28.179Z,39.30
2023-04-06T12:11:57.018Z,39.10
2023-04-06T12:14:25.440Z,39.40
2023-04-06T12:16:53.602Z,39.70
2023-04-06T12:19:22.059Z,39.20
2023-04-06T12:21:51.796Z,39.30
2023-04-06T12:24:19.933Z,39.60
2023-04-06T12:26:48.401Z,38.80
2023-04-06T12:29:16.708Z,38.40
2023-04-06T12:31:46.134Z,38.30
2023-04-06T12:34:14.528Z,38.20
2023-04-06T12:36:42.641Z,37.90
2023-04-06T12:39:12.131Z,37.60
2023-04-06T12:41:41.519Z,37.70
2023-04-06T12:44:09.688Z,37.70
2023-04-06T12:46:37.864Z,37.60
2023-04-06T12:49:06.032Z,37.60
2023-04-06T12:51:34.075Z,37.20
2023-04-06T12:54:02.190Z,36.60
2023-04-06T12:56:31.947Z,37.40
2023-04-06T12:59:00.272Z,36.40
2023-04-06T13:01:29.049Z,36.10
2023-04-06T13:03:58.224Z,36.20
2023-04-06T13:06:28.608Z,36.30
2023-04-06T13:08:57.371Z,36.60
2023-04-06T13:11:28.194Z,36.20
2023-04-06T13:13:58.070Z,36.00
2023-04-06T13:16:26.380Z,35.30
2023-04-06T13:18:54.456Z,35.00
2023-04-06T13:21:22.800Z,35.10
2023-04-06T13:23:50.938Z,35.60
2023-04-06T13:26:19.091Z,35.40
2023-04-06T13:28:47.277Z,35.60
2023-04-06T13:31:16.746Z,35.90
2023-04-06T13:33:44.843Z,35.80
2023-04-06T13:36:14.626Z,36.40
2023-04-06T13:38:44.115Z,36.50
2023-04-06T13:41:12.337Z,35.50
2023-04-06T13:43:40.475Z,35.60
2023-04-06T13:46:08.588Z,34.90
2023-04-06T13:48:38.061Z,34.30
2023-04-06T13:51:12.913Z,34.20
2023-04-06T13:53:41.915Z,34.00
2023-04-06T13:56:10.528Z,33.80
2023-04-06T13:58:38.606Z,33.90
2023-04-06T14:01:08.206Z,33.90
2023-04-06T14:03:38.463Z,34.30
2023-04-06T14:06:20.903Z,34.30
2023-04-06T14:08:58.446Z,34.20
2023-04-06T14:11:27.151Z,34.10
2023-04-06T14:13:57.825Z,34.00
2023-04-06T14:16:26.473Z,34.20
2023-04-06T14:18:58.699Z,34.50
2023-04-06T14:21:27.386Z,34.60
2023-04-06T14:23:57.986Z,34.50
2023-04-06T14:26:28.491Z,34.60
2023-04-06T14:28:56.819Z,35.00
2023-04-06T14:31:24.793Z,35.10
2023-04-06T14:33:52.830Z,35.20
2023-04-06T14:36:22.135Z,35.40
2023-04-06T14:38:50.472Z,35.30
2023-04-06T14:41:19.002Z,35.60
2023-04-06T14:43:48.094Z,35.20
2023-04-06T14:46:17.016Z,35.60
2023-04-06T14:48:44.913Z,36.10
2023-04-06T14:51:13.136Z,36.20
2023-04-06T14:53:42.403Z,36.20
2023-04-06T14:56:10.466Z,35.60
2023-04-06T14:58:38.632Z,35.30
2023-04-06T15:01:07.459Z,35.10
2023-04-06T15:03:35.830Z,34.80
2023-04-06T15:06:03.870Z,35.30
2023-04-06T15:08:31.898Z,35.10
2023-04-06T15:11:02.622Z,35.40
2023-04-06T15:13:30.826Z,35.60
2023-04-06T15:16:01.267Z,35.60
2023-04-06T15:18:30.391Z,35.70
2023-04-06T15:20:58.437Z,36.00
2023-04-06T15:23:26.385Z,36.70
2023-04-06T15:25:54.502Z,37.20
2023-04-06T15:28:23.978Z,37.60
2023-04-06T15:30:52.093Z,37.50
2023-04-06T15:33:22.743Z,37.40
2023-04-06T15:35:51.151Z,37.80
2023-04-06T15:38:19.186Z,37.90
2023-04-06T15:40:48.958Z,38.30
2023-04-06T15:43:17.719Z,38.40
2023-04-06T15:45:47.235Z,38.40
2023-04-06T15:48:15.451Z,38.70
2023-04-06T15:50:43.388Z,38.80
2023-04-06T15:53:12.659Z,38.90
2023-04-06T15:55:40.680Z,38.90
2023-04-06T15:58:08.652Z,38.90
2023-04-06T16:00:36.714Z,38.90
2023-04-06T16:03:06.532Z,39.00
2023-04-06T16:05:43.861Z,39.00
2023-04-06T16:08:17.090Z,39.30
2023-04-06T16:10:45.076Z,39.30
2023-04-06T16:13:13.094Z,39.50
2023-04-06T16:15:41.203Z,39.90
2023-04-06T16:18:10.616Z,40.40
2023-04-06T16:20:38.563Z,40.50
2023-04-06T16:23:06.547Z,40.30
2023-04-06T16:25:34.553Z,40.50
2023-04-06T16:28:02.766Z,41.30
2023-04-06T16:30:31.300Z,41.70
2023-04-06T16:32:59.380Z,42.00
2023-04-06T16:35:28.877Z,42.10
2023-04-06T16:37:56.914Z,42.30
2023-04-06T16:40:24.923Z,42.60
2023-04-06T16:42:52.937Z,43.20
2023-04-06T16:45:21.430Z,44.30
2023-04-06T16:47:50.583Z,45.70
2023-04-06T16:50:18.894Z,46.00
2023-04-06T16:52:48.160Z,46.80
2023-04-06T16:55:16.144Z,47.00
2023-04-06T16:57:44.057Z,47.40
2023-04-06T17:00:13.225Z,47.90
2023-04-06T17:02:41.455Z,48.50
2023-04-06T17:05:10.283Z,48.90
2023-04-06T17:07:38.229Z,49.00
2023-04-06T17:10:08.384Z,48.00
2023-04-06T17:12:36.374Z,46.70
2023-04-06T17:15:04.455Z,46.20
2023-04-06T17:17:32.817Z,46.00
2023-04-06T17:20:00.885Z,45.70
2023-04-06T17:22:28.788Z,45.70
2023-04-06T17:24:56.844Z,45.90
2023-04-06T17:27:27.793Z,45.60
2023-04-06T17:29:56.233Z,45.80
2023-04-06T17:32:24.321Z,45.80
2023-04-06T17:34:52.310Z,45.20
2023-04-06T17:37:20.383Z,45.00
2023-04-06T17:39:48.309Z,45.10
2023-04-06T17:42:16.361Z,44.60
2023-04-06T17:44:48.725Z,44.60
2023-04-06T17:47:18.475Z,44.90
2023-04-06T17:49:46.531Z,45.10
2023-04-06T17:52:14.535Z,45.70
2023-04-06T17:54:42.520Z,46.10
2023-04-06T17:57:10.643Z,46.30
2023-04-06T17:59:38.803Z,46.60
2023-04-06T18:02:08.957Z,47.00
2023-04-06T18:04:37.980Z,47.00
2023-04-06T18:07:06.529Z,47.50
2023-04-06T18:09:37.232Z,48.60
2023-04-06T18:12:05.461Z,48.70
2023-04-06T18:14:33.432Z,48.70
2023-04-06T18:17:01.393Z,49.00
2023-04-06T18:19:32.295Z,49.30
2023-04-06T18:22:00.386Z,49.40
2023-04-06T18:24:41.203Z,49.40
2023-04-06T18:27:10.292Z,49.30
2023-04-06T18:29:38.421Z,49.50
2023-04-06T18:32:07.081Z,49.50
2023-04-06T18:34:36.571Z,49.80
2023-04-06T18:37:04.545Z,50.00
2023-04-06T18:39:32.712Z,50.10
2023-04-06T18:42:00.815Z,50.20
2023-04-06T18:44:28.835Z,50.30
2023-04-06T18:46:56.812Z,50.40
2023-04-06T18:49:24.992Z,50.50
2023-04-06T18:51:55.695Z,50.70
2023-04-06T18:54:23.662Z,50.50
2023-04-06T18:56:51.722Z,50.30
2023-04-06T18:59:19.765Z,51.00
2023-04-06T19:01:51.082Z,50.90
2023-04-06T19:04:19.464Z,51.00
2023-04-06T19:06:48.040Z,51.30
2023-04-06T19:09:17.439Z,51.50
2023-04-06T19:11:45.704Z,51.40
2023-04-06T19:14:13.703Z,51.60
2023-04-06T19:16:51.727Z,52.20
2023-04-06T19:19:21.104Z,52.60
2023-04-06T19:21:49.641Z,52.70
2023-04-06T19:24:19.079Z,52.80
2023-04-06T19:26:47.239Z,52.80
2023-04-06T19:29:15.339Z,52.50
2023-04-06T19:31:43.414Z,53.00
2023-04-06T19:34:17.205Z,53.60
2023-04-06T19:36:45.336Z,53.90
2023-04-06T19:39:16.444Z,54.10
2023-04-06T19:41:45.794Z,54.20
2023-04-06T19:44:14.026Z,54.20
2023-04-06T19:46:42.569Z,53.40
2023-04-06T19:49:10.948Z,53.30
2023-04-06T19:51:39.192Z,53.60
2023-04-06T19:54:07.922Z,54.00
2023-04-06T19:56:36.028Z,55.20
2023-04-06T19:59:05.341Z,54.80
2023-04-06T20:01:33.499Z,55.30
2023-04-06T20:04:01.767Z,56.70
2023-04-06T20:06:30.970Z,57.20
2023-04-06T20:08:58.910Z,57.90
2023-04-06T20:11:27.249Z,58.40
2023-04-06T20:13:55.232Z,58.90
2023-04-06T20:16:24.719Z,59.40
2023-04-06T20:18:52.665Z,59.80
2023-04-06T20:21:20.786Z,59.90
2023-04-06T20:23:48.839Z,60.30
2023-04-06T20:26:16.872Z,61.10
2023-04-06T20:28:44.912Z,62.20
2023-04-06T20:31:13.070Z,63.70
2023-04-06T20:33:42.522Z,65.20
2023-04-06T20:36:11.221Z,66.20
2023-04-06T20:38:40.453Z,67.00
2023-04-06T20:41:09.207Z,68.80
2023-04-06T20:43:37.551Z,70.30
2023-04-06T20:46:07.420Z,72.30
2023-04-06T20:48:36.288Z,74.20
2023-04-06T20:51:06.252Z,75.80
2023-04-06T20:53:34.382Z,76.90
2023-04-06T20:56:03.132Z,78.00
2023-04-06T20:58:31.045Z,78.70
2023-04-06T21:00:59.037Z,79.60
2023-04-06T21:03:27.118Z,82.90
2023-04-06T21:05:57.258Z,83.80
2023-04-06T21:08:26.590Z,85.20
2023-04-06T21:10:54.456Z,86.90
2023-04-06T21:13:22.390Z,88.80
2023-04-06T21:15:51.530Z,91.30
2023-04-06T21:18:19.641Z,92.50
2023-04-06T21:20:47.658Z,93.20
2023-04-06T21:23:16.219Z,94.50
2023-04-06T21:25:45.501Z,95.90
2023-04-06T21:28:13.462Z,97.80
2023-04-06T21:30:42.345Z,99.50
2023-04-06T21:33:11.463Z,99.90
2023-04-06T21:35:40.665Z,99.90
2023-04-06T21:38:09.329Z,99.90
2023-04-06T21:40:37.732Z,99.90
2023-04-06T21:43:06.990Z,99.90
2023-04-06T21:45:34.975Z,99.90
2023-04-06T21:48:03.026Z,99.90
2023-04-06T21:50:30.967Z,99.90
2023-04-06T21:52:58.890Z,99.90
2023-04-06T21:55:26.830Z,99.90
2023-04-06T21:57:54.763Z,99.90
2023-04-06T22:00:23.971Z,99.90
2023-04-06T22:02:52.293Z,99.90
2023-04-06T22:05:20.642Z,99.90
2023-04-06T22:07:48.567Z,99.90
2023-04-06T22:10:16.546Z,99.90
2023-04-06T22:12:44.416Z,99.90
2023-04-06T22:15:13.981Z,99.90
2023-04-06T22:17:43.344Z,99.90
2023-04-06T22:20:11.632Z,99.90
2023-04-06T22:22:40.381Z,99.90
2023-04-06T22:25:09.237Z,99.90
2023-04-06T22:27:37.283Z,99.90
2023-04-06T22:30:05.794Z,99.90
2023-04-06T22:32:33.736Z,99.90
2023-04-06T22:35:03.023Z,99.90
2023-04-06T22:37:30.974Z,99.90
2023-04-06T22:39:58.845Z,99.90
2023-04-06T22:42:27.726Z,99.90
2023-04-06T22:44:56.017Z,99.90
2023-04-06T22:47:24.060Z,99.90
2023-04-06T22:49:52.305Z,99.90
2023-04-06T22:52:21.590Z,99.90
2023-04-06T22:54:49.572Z,99.90
2023-04-06T22:57:17.539Z,99.90
2023-04-06T22:59:45.493Z,99.90
2023-04-06T23:02:14.197Z,99.90
2023-04-06T23:04:42.261Z,99.90
2023-04-06T23:07:11.552Z,99.90
2023-04-06T23:09:41.517Z,99.90
2023-04-06T23:12:09.790Z,99.90
2023-04-06T23:14:37.889Z,99.90
2023-04-06T23:17:06.065Z,99.90
2023-04-06T23:19:33.987Z,99.90
2023-04-06T23:22:02.266Z,99.90
2023-04-06T23:24:30.363Z,99.90
2023-04-06T23:26:59.683Z,99.90
2023-04-06T23:29:27.571Z,99.90
2023-04-06T23:31:55.571Z,99.90
2023-04-06T23:34:23.594Z,99.90
2023-04-06T23:36:51.636Z,99.90
2023-04-06T23:39:19.510Z,99.90
2023-04-06T23:41:47.410Z,99.90
2023-04-06T23:44:16.618Z,99.90
2023-04-06T23:46:44.730Z,99.90
2023-04-06T23:49:12.753Z,99.90
2023-04-06T23:51:40.914Z,99.90
2023-04-06T23:54:09.550Z,99.90
2023-04-06T23:56:37.506Z,99.90
2023-04-06T23:59:05.395Z,99.90
